createdAt,value
2022-08-07T00:01:44.540Z,73.38
2022-08-07T00:02:56.927Z,73.44
2022-08-07T00:03:58.992Z,73.55
2022-08-07T00:05:00.714Z,73.63
2022-08-07T00:06:06.453Z,73.75
2022-08-07T00:07:09.393Z,73.85
2022-08-07T00:08:11.383Z,74.07
2022-08-07T00:09:21.311Z,74.12
2022-08-07T00:10:25.843Z,74.02
2022-08-07T00:11:32.956Z,74.34
2022-08-07T00:12:34.977Z,74.69
2022-08-07T00:13:57.314Z,74.62
2022-08-07T00:15:01.084Z,74.72
2022-08-07T00:16:05.259Z,74.94
2022-08-07T00:17:09.269Z,75.19
2022-08-07T00:18:19.889Z,75.27
2022-08-07T00:20:00.188Z,75.43
2022-08-07T00:20:51.417Z,75.77
2022-08-07T00:21:57.481Z,75.89
2022-08-07T00:23:08.063Z,75.94
2022-08-07T00:24:11.350Z,76.15
2022-08-07T00:25:17.263Z,76.39
2022-08-07T00:26:58.909Z,76.60
2022-08-07T00:27:53.404Z,76.86
2022-08-07T00:28:58.266Z,77.05
2022-08-07T00:29:59.930Z,77.19
2022-08-07T00:31:12.328Z,77.39
2022-08-07T00:32:14.950Z,77.59
2022-08-07T00:33:17.768Z,77.85
2022-08-07T00:34:19.608Z,78.10
2022-08-07T00:35:24.499Z,78.07
2022-08-07T00:36:26.300Z,78.36
2022-08-07T00:37:30.946Z,78.48
2022-08-07T00:38:50.403Z,78.77
2022-08-07T00:39:56.040Z,78.85
2022-08-07T00:40:58.421Z,79.09
2022-08-07T00:42:05.276Z,79.19
2022-08-07T00:43:09.653Z,79.45
2022-08-07T00:44:12.367Z,79.73
2022-08-07T00:45:17.007Z,79.89
2022-08-07T00:46:19.207Z,79.95
2022-08-07T00:48:09.378Z,80.09
2022-08-07T00:48:43.386Z,80.29
2022-08-07T00:50:19.653Z,80.24
2022-08-07T00:51:08.311Z,80.62
2022-08-07T00:52:10.374Z,80.68
2022-08-07T00:53:13.626Z,80.83
2022-08-07T00:54:19.841Z,81.16
2022-08-07T00:55:25.325Z,81.18
2022-08-07T00:56:44.677Z,81.42
2022-08-07T00:57:55.366Z,81.68
2022-08-07T00:58:59.066Z,81.91
2022-08-07T01:00:01.219Z,82.02
2022-08-07T01:01:04.940Z,82.32
2022-08-07T01:02:14.093Z,82.58
2022-08-07T01:03:57.201Z,82.77
2022-08-07T01:04:53.602Z,83.02
2022-08-07T01:06:01.327Z,83.15
2022-08-07T01:07:04.655Z,83.38
2022-08-07T01:08:06.567Z,83.55
2022-08-07T01:09:11.877Z,83.70
2022-08-07T01:10:33.767Z,83.79
2022-08-07T01:12:27.623Z,83.78
2022-08-07T01:12:59.790Z,83.90
2022-08-07T01:14:02.405Z,84.00
2022-08-07T01:15:06.511Z,83.95
2022-08-07T01:16:15.132Z,84.11
2022-08-07T01:17:34.584Z,84.29
2022-08-07T01:18:38.046Z,84.27
2022-08-07T01:19:42.025Z,84.31
2022-08-07T01:21:17.516Z,84.35
2022-08-07T01:22:29.437Z,84.51
2022-08-07T01:23:36.886Z,84.69
2022-08-07T01:24:44.150Z,84.77
2022-08-07T01:25:55.786Z,85.02
2022-08-07T01:27:00.010Z,85.11
2022-08-07T01:28:02.471Z,85.32
2022-08-07T01:29:04.806Z,85.38
2022-08-07T01:30:08.222Z,85.44
2022-08-07T01:31:15.420Z,85.46
2022-08-07T01:32:22.503Z,85.73
2022-08-07T01:33:30.198Z,85.71
2022-08-07T01:34:49.387Z,85.96
2022-08-07T01:35:53.783Z,86.09
2022-08-07T01:37:00.462Z,86.42
2022-08-07T01:38:04.217Z,86.66
2022-08-07T01:39:09.982Z,86.91
2022-08-07T01:40:19.496Z,86.98
2022-08-07T01:41:29.779Z,87.40
2022-08-07T01:42:38.251Z,87.54
2022-08-07T01:43:44.080Z,87.66
2022-08-07T01:44:48.064Z,87.92
2022-08-07T01:45:54.620Z,87.94
2022-08-07T01:46:58.490Z,87.96
2022-08-07T01:48:19.102Z,88.12
2022-08-07T01:49:24.033Z,88.27
2022-08-07T01:50:30.482Z,88.19
2022-08-07T01:52:03.418Z,88.40
2022-08-07T01:52:58.536Z,88.66
2022-08-07T01:54:12.784Z,88.76
2022-08-07T01:55:39.619Z,88.91
2022-08-07T01:56:49.711Z,89.11
2022-08-07T01:58:06.921Z,89.15
2022-08-07T01:59:30.865Z,89.28
2022-08-07T02:00:49.069Z,89.34
2022-08-07T02:02:02.433Z,89.45
2022-08-07T02:03:22.038Z,89.43
2022-08-07T02:04:56.334Z,89.69
2022-08-07T02:06:08.826Z,89.87
2022-08-07T02:07:50.039Z,89.95
2022-08-07T02:09:03.686Z,90.15
2022-08-07T02:10:09.135Z,90.34
2022-08-07T02:11:30.733Z,90.25
2022-08-07T02:12:42.506Z,90.48
2022-08-07T02:14:00.754Z,90.59
2022-08-07T02:15:08.227Z,90.63
2022-08-07T02:16:16.059Z,90.76
2022-08-07T02:17:27.555Z,91.00
2022-08-07T02:18:38.312Z,91.24
2022-08-07T02:20:04.739Z,91.42
2022-08-07T02:21:16.050Z,91.72
2022-08-07T02:22:20.728Z,91.76
2022-08-07T02:23:30.461Z,91.93
2022-08-07T02:24:39.347Z,91.95
2022-08-07T02:26:30.571Z,92.17
2022-08-07T02:27:14.142Z,92.31
2022-08-07T02:28:24.606Z,92.51
2022-08-07T02:29:30.675Z,92.60
2022-08-07T02:30:36.449Z,92.62
2022-08-07T02:31:39.905Z,92.79
2022-08-07T02:33:03.939Z,93.00
2022-08-07T02:34:11.479Z,93.14
2022-08-07T02:36:28.290Z,93.32
2022-08-07T02:36:50.373Z,93.35
2022-08-07T02:37:56.189Z,93.58
2022-08-07T02:39:01.557Z,93.62
2022-08-07T02:40:30.020Z,93.70
2022-08-07T02:41:36.982Z,93.71
2022-08-07T02:42:40.565Z,93.75
2022-08-07T02:43:48.921Z,93.63
2022-08-07T02:44:54.918Z,93.59
2022-08-07T02:46:04.426Z,93.52
2022-08-07T02:47:19.884Z,93.73
2022-08-07T02:48:26.968Z,93.95
2022-08-07T02:49:56.452Z,94.10
2022-08-07T02:50:56.366Z,94.31
2022-08-07T02:52:04.097Z,94.37
2022-08-07T02:53:12.083Z,94.48
2022-08-07T02:54:18.122Z,94.48
2022-08-07T02:55:27.736Z,94.71
2022-08-07T02:56:47.901Z,94.66
2022-08-07T02:57:52.368Z,94.66
2022-08-07T02:58:55.513Z,94.80
2022-08-07T03:00:01.258Z,94.71
2022-08-07T03:01:18.478Z,95.04
2022-08-07T03:02:21.615Z,95.00
2022-08-07T03:03:29.652Z,95.28
2022-08-07T03:04:54.944Z,95.37
2022-08-07T03:05:57.890Z,95.55
2022-08-07T03:07:07.360Z,95.56
2022-08-07T03:08:14.138Z,95.79
2022-08-07T03:09:43.200Z,95.87
2022-08-07T03:10:47.030Z,96.11
2022-08-07T03:11:57.913Z,96.25
2022-08-07T03:13:07.128Z,96.29
2022-08-07T03:14:11.570Z,96.37
2022-08-07T03:15:13.980Z,96.40
2022-08-07T03:16:36.749Z,96.27
2022-08-07T03:17:52.810Z,96.41
2022-08-07T03:18:57.473Z,96.31
2022-08-07T03:20:00.648Z,96.30
2022-08-07T03:21:08.491Z,96.57
2022-08-07T03:22:18.913Z,96.61
2022-08-07T03:23:21.893Z,96.70
2022-08-07T03:24:36.718Z,96.72
2022-08-07T03:25:41.999Z,96.62
2022-08-07T03:26:51.298Z,96.78
2022-08-07T03:28:09.536Z,96.75
2022-08-07T03:29:30.443Z,96.93
2022-08-07T03:30:33.703Z,96.84
2022-08-07T03:31:42.649Z,96.93
2022-08-07T03:32:58.519Z,97.10
2022-08-07T03:34:03.419Z,97.12
2022-08-07T03:35:17.472Z,97.09
2022-08-07T03:36:25.845Z,97.07
2022-08-07T03:37:32.528Z,97.19
2022-08-07T03:38:41.389Z,97.29
2022-08-07T03:39:59.128Z,97.31
2022-08-07T03:41:03.798Z,97.27
2022-08-07T03:42:07.484Z,97.28
2022-08-07T03:43:14.639Z,97.39
2022-08-07T03:44:21.769Z,97.32
2022-08-07T03:45:43.273Z,97.30
2022-08-07T03:47:11.004Z,97.41
2022-08-07T03:48:11.504Z,97.37
2022-08-07T03:49:13.782Z,97.52
2022-08-07T03:50:23.413Z,97.46
2022-08-07T03:51:31.039Z,97.55
2022-08-07T03:52:51.890Z,97.62
2022-08-07T03:54:33.856Z,97.54
2022-08-07T03:55:17.650Z,97.48
2022-08-07T03:56:32.773Z,97.39
2022-08-07T03:58:32.707Z,97.39
2022-08-07T03:59:09.576Z,97.30
2022-08-07T04:00:18.297Z,97.40
2022-08-07T04:01:26.997Z,97.26
2022-08-07T04:02:29.365Z,97.04
2022-08-07T04:03:38.867Z,96.90
2022-08-07T04:04:55.182Z,96.97
2022-08-07T04:06:00.461Z,96.86
2022-08-07T04:07:02.679Z,96.79
2022-08-07T04:08:21.343Z,96.81
2022-08-07T04:09:24.387Z,96.50
2022-08-07T04:10:31.142Z,96.52
2022-08-07T04:12:27.639Z,96.41
2022-08-07T04:12:57.470Z,96.37
2022-08-07T04:14:10.970Z,96.27
2022-08-07T04:15:24.203Z,96.04
2022-08-07T04:16:30.870Z,96.02
2022-08-07T04:18:56.632Z,95.92
2022-08-07T04:19:01.623Z,96.01
2022-08-07T04:20:11.223Z,96.08
2022-08-07T04:21:13.222Z,95.94
2022-08-07T04:22:18.926Z,96.03
2022-08-07T04:23:21.664Z,95.84
2022-08-07T04:24:30.508Z,95.69
2022-08-07T04:25:39.383Z,95.85
2022-08-07T04:26:43.619Z,95.64
2022-08-07T04:27:59.491Z,95.51
2022-08-07T04:29:04.339Z,95.27
2022-08-07T04:30:11.829Z,95.05
2022-08-07T04:31:39.043Z,94.84
2022-08-07T04:32:58.210Z,94.56
2022-08-07T04:34:01.823Z,94.44
2022-08-07T04:35:06.431Z,94.30
2022-08-07T04:36:14.821Z,94.26
2022-08-07T04:37:30.617Z,93.84
2022-08-07T04:38:40.627Z,93.48
2022-08-07T04:39:47.856Z,93.51
2022-08-07T04:40:56.569Z,93.04
2022-08-07T04:42:04.013Z,92.67
2022-08-07T04:43:06.606Z,92.64
2022-08-07T04:44:18.473Z,92.10
2022-08-07T04:45:57.406Z,91.73
2022-08-07T04:47:56.676Z,91.48
2022-08-07T04:49:17.768Z,91.03
2022-08-07T04:50:32.431Z,90.15
2022-08-07T04:52:10.398Z,89.06
2022-08-07T04:53:40.126Z,88.69
2022-08-07T04:54:50.677Z,88.80
2022-08-07T04:58:15.191Z,88.48
2022-08-07T04:58:15.884Z,88.81
2022-08-07T05:00:09.666Z,87.86
2022-08-07T05:01:02.711Z,87.56
2022-08-07T05:02:16.670Z,87.04
2022-08-07T05:04:07.737Z,86.65
2022-08-07T05:05:52.077Z,85.95
2022-08-07T05:07:19.839Z,84.55
2022-08-07T05:08:59.782Z,84.44
2022-08-07T05:09:55.194Z,84.33
2022-08-07T05:11:07.212Z,83.42
2022-08-07T05:12:27.255Z,83.09
2022-08-07T05:14:56.174Z,83.42
2022-08-07T05:15:23.182Z,83.31
2022-08-07T05:16:33.185Z,83.49
2022-08-07T05:17:52.577Z,83.11
2022-08-07T05:19:08.777Z,82.46
2022-08-07T05:20:16.139Z,82.39
2022-08-07T05:21:59.228Z,82.77
2022-08-07T05:22:52.942Z,82.03
2022-08-07T05:23:59.826Z,80.98
2022-08-07T05:25:02.698Z,80.35
2022-08-07T05:26:23.638Z,80.52
2022-08-07T05:28:15.862Z,79.50
2022-08-07T05:28:57.737Z,79.19
2022-08-07T05:30:03.674Z,78.97
2022-08-07T05:31:08.435Z,79.33
2022-08-07T05:32:12.861Z,78.83
2022-08-07T05:33:17.987Z,79.07
2022-08-07T05:34:26.378Z,78.97
2022-08-07T05:35:41.952Z,78.98
2022-08-07T05:36:48.979Z,77.90
2022-08-07T05:38:08.678Z,78.92
2022-08-07T05:40:06.792Z,79.75
2022-08-07T05:40:41.874Z,79.86
2022-08-07T05:42:00.750Z,80.23
2022-08-07T05:43:05.757Z,80.52
2022-08-07T05:44:13.966Z,80.33
2022-08-07T05:45:28.085Z,80.81
2022-08-07T05:46:44.548Z,80.66
2022-08-07T05:48:01.843Z,80.95
2022-08-07T05:49:14.413Z,80.27
2022-08-07T05:50:18.636Z,80.42
2022-08-07T05:51:22.522Z,80.46
2022-08-07T05:52:30.054Z,80.60
2022-08-07T05:54:12.272Z,80.42
2022-08-07T05:54:58.772Z,80.35
2022-08-07T05:56:10.038Z,80.84
2022-08-07T05:57:17.889Z,81.16
2022-08-07T05:58:36.146Z,81.01
2022-08-07T05:59:57.179Z,81.23
2022-08-07T06:01:04.974Z,80.31
2022-08-07T06:02:13.841Z,80.67
2022-08-07T06:03:23.697Z,80.94
2022-08-07T06:04:30.200Z,81.01
2022-08-07T06:05:34.510Z,81.14
2022-08-07T06:06:46.088Z,80.91
2022-08-07T06:08:29.165Z,81.36
2022-08-07T06:09:14.794Z,80.55
2022-08-07T06:10:19.635Z,80.20
2022-08-07T06:11:22.833Z,80.35
2022-08-07T06:12:31.882Z,81.11
2022-08-07T06:14:11.850Z,79.54
2022-08-07T06:15:05.543Z,79.23
2022-08-07T06:16:10.159Z,79.40
2022-08-07T06:17:15.534Z,79.19
2022-08-07T06:18:21.572Z,78.28
2022-08-07T06:19:49.890Z,77.74
2022-08-07T06:20:51.051Z,76.95
2022-08-07T06:22:14.543Z,76.23
2022-08-07T06:24:38.095Z,76.20
2022-08-07T06:24:57.016Z,74.94
2022-08-07T06:26:01.484Z,74.62
2022-08-07T06:27:04.730Z,74.06
2022-08-07T06:28:09.630Z,74.00
2022-08-07T06:29:15.842Z,73.93
2022-08-07T06:30:32.196Z,73.92
2022-08-07T06:31:49.790Z,73.51
2022-08-07T06:32:53.019Z,73.91
2022-08-07T06:33:55.623Z,71.37
2022-08-07T06:35:00.620Z,71.62
2022-08-07T06:36:06.774Z,71.44
2022-08-07T06:37:43.478Z,71.55
2022-08-07T06:38:59.515Z,69.94
2022-08-07T06:40:16.130Z,68.87
2022-08-07T06:42:01.819Z,67.78
2022-08-07T06:42:53.602Z,68.45
2022-08-07T06:44:25.853Z,68.21
2022-08-07T06:45:35.796Z,67.76
2022-08-07T06:46:40.655Z,68.13
2022-08-07T06:47:47.983Z,65.30
2022-08-07T06:48:59.053Z,65.13
2022-08-07T06:50:01.715Z,65.02
2022-08-07T06:51:15.392Z,64.77
2022-08-07T06:52:35.255Z,63.76
2022-08-07T06:55:28.485Z,63.70
2022-08-07T06:55:31.896Z,63.49
2022-08-07T06:56:48.500Z,62.76
2022-08-07T06:58:06.248Z,62.66
2022-08-07T07:00:12.199Z,62.20
2022-08-07T07:00:46.332Z,64.01
2022-08-07T07:01:51.075Z,63.87
2022-08-07T07:03:00.606Z,63.54
2022-08-07T07:04:32.435Z,62.76
2022-08-07T07:06:03.845Z,62.65
2022-08-07T07:07:00.158Z,61.85
2022-08-07T07:08:06.656Z,61.66
2022-08-07T07:09:25.580Z,62.30
2022-08-07T07:10:35.107Z,62.87
2022-08-07T07:12:07.792Z,62.84
2022-08-07T07:13:13.223Z,62.76
2022-08-07T07:14:18.519Z,63.45
2022-08-07T07:15:35.733Z,62.58
2022-08-07T07:16:49.495Z,63.20
2022-08-07T07:18:05.548Z,62.97
2022-08-07T07:19:56.870Z,62.41
2022-08-07T07:20:50.252Z,63.23
2022-08-07T07:22:04.760Z,63.22
2022-08-07T07:24:09.133Z,61.83
2022-08-07T07:24:39.170Z,61.85
2022-08-07T07:26:32.840Z,62.43
2022-08-07T07:27:16.111Z,64.03
2022-08-07T07:28:42.131Z,63.06
2022-08-07T07:30:07.559Z,62.27
2022-08-07T07:31:21.440Z,61.49
2022-08-07T07:32:25.747Z,62.61
2022-08-07T07:33:30.605Z,61.51
2022-08-07T07:34:36.545Z,61.58
2022-08-07T07:36:04.965Z,61.32
2022-08-07T07:37:21.635Z,61.26
2022-08-07T07:38:32.882Z,61.04
2022-08-07T07:39:52.015Z,61.80
2022-08-07T07:41:02.733Z,61.40
2022-08-07T07:42:13.486Z,61.70
2022-08-07T07:43:18.752Z,62.46
2022-08-07T07:44:33.552Z,61.90
2022-08-07T07:46:36.587Z,61.10
2022-08-07T07:47:15.922Z,59.70
2022-08-07T07:48:35.223Z,59.46
2022-08-07T07:50:32.646Z,58.75
2022-08-07T07:51:07.839Z,57.24
2022-08-07T07:52:13.174Z,57.39
2022-08-07T07:53:23.078Z,56.09
2022-08-07T07:54:30.690Z,56.94
2022-08-07T07:55:37.630Z,57.21
2022-08-07T07:56:49.492Z,57.22
2022-08-07T07:57:58.253Z,58.72
2022-08-07T07:59:03.265Z,59.49
2022-08-07T08:00:09.447Z,58.16
2022-08-07T08:02:01.812Z,57.98
2022-08-07T08:03:05.091Z,57.18
2022-08-07T08:04:11.551Z,57.98
2022-08-07T08:05:18.067Z,56.66
2022-08-07T08:06:26.721Z,54.97
2022-08-07T08:07:35.700Z,54.46
2022-08-07T08:08:46.176Z,54.27
2022-08-07T08:10:04.979Z,54.10
2022-08-07T08:11:16.489Z,53.51
2022-08-07T08:12:51.520Z,53.88
2022-08-07T08:13:55.850Z,54.90
2022-08-07T08:14:57.883Z,53.58
2022-08-07T08:16:02.732Z,53.36
2022-08-07T08:17:55.554Z,53.33
2022-08-07T08:18:31.214Z,50.79
2022-08-07T08:20:19.429Z,51.06
2022-08-07T08:21:02.948Z,51.47
2022-08-07T08:22:32.633Z,51.81
2022-08-07T08:23:55.144Z,52.36
2022-08-07T08:25:26.283Z,52.76
2022-08-07T08:27:00.249Z,51.98
2022-08-07T08:28:04.541Z,51.38
2022-08-07T08:29:08.411Z,51.81
2022-08-07T08:30:14.249Z,52.15
2022-08-07T08:31:59.050Z,53.81
2022-08-07T08:32:56.036Z,52.53
2022-08-07T08:34:01.508Z,50.92
2022-08-07T08:35:08.619Z,51.04
2022-08-07T08:36:13.440Z,51.52
2022-08-07T08:38:00.650Z,51.19
2022-08-07T08:38:48.251Z,51.08
2022-08-07T08:39:55.139Z,50.80
2022-08-07T08:41:22.978Z,48.85
2022-08-07T08:42:43.446Z,49.01
2022-08-07T08:43:59.542Z,50.45
2022-08-07T08:45:05.622Z,51.16
2022-08-07T08:46:21.971Z,49.30
2022-08-07T08:47:34.378Z,49.60
2022-08-07T08:49:16.554Z,49.43
2022-08-07T08:50:39.628Z,49.37
2022-08-07T08:52:14.041Z,48.97
2022-08-07T08:53:45.883Z,49.85
2022-08-07T08:55:01.059Z,50.17
2022-08-07T08:56:12.154Z,50.53
2022-08-07T08:57:30.272Z,49.47
2022-08-07T08:58:43.600Z,50.40
2022-08-07T08:59:50.198Z,50.78
2022-08-07T09:01:01.046Z,49.41
2022-08-07T09:02:49.348Z,48.70
2022-08-07T09:04:30.199Z,48.62
2022-08-07T09:05:50.573Z,48.11
2022-08-07T09:07:14.401Z,47.18
2022-08-07T09:08:29.035Z,46.34
2022-08-07T09:10:00.006Z,45.09
2022-08-07T09:11:24.703Z,46.43
2022-08-07T09:13:18.244Z,47.41
2022-08-07T09:14:34.032Z,46.72
2022-08-07T09:16:20.523Z,46.57
2022-08-07T09:17:59.249Z,45.75
2022-08-07T09:18:58.554Z,44.85
2022-08-07T09:20:37.148Z,46.02
2022-08-07T09:22:09.725Z,45.67
2022-08-07T09:24:32.049Z,45.88
2022-08-07T09:25:14.561Z,47.31
2022-08-07T09:26:31.543Z,47.25
2022-08-07T09:28:00.459Z,47.74
2022-08-07T09:30:05.999Z,48.12
2022-08-07T09:30:52.906Z,45.16
2022-08-07T09:32:33.660Z,46.01
2022-08-07T09:34:18.097Z,45.98
2022-08-07T09:36:01.077Z,44.88
2022-08-07T09:37:21.170Z,43.63
2022-08-07T09:38:54.754Z,44.25
2022-08-07T09:40:08.890Z,46.08
2022-08-07T09:41:58.886Z,45.85
2022-08-07T09:44:06.585Z,46.04
2022-08-07T09:47:23.589Z,45.36
2022-08-07T09:47:42.523Z,44.56
2022-08-07T09:50:03.979Z,45.42
2022-08-07T09:50:39.991Z,44.97
2022-08-07T09:52:33.634Z,45.56
2022-08-07T09:53:47.961Z,43.22
2022-08-07T09:55:17.247Z,44.22
2022-08-07T09:56:46.739Z,46.43
2022-08-07T09:58:38.737Z,44.51
2022-08-07T10:00:05.607Z,42.54
2022-08-07T10:01:53.421Z,44.19
2022-08-07T10:04:05.725Z,44.92
2022-08-07T10:05:16.160Z,44.75
2022-08-07T10:06:49.100Z,45.74
2022-08-07T10:08:28.369Z,46.63
2022-08-07T10:10:00.608Z,47.08
2022-08-07T10:11:59.753Z,47.37
2022-08-07T10:13:54.938Z,48.96
2022-08-07T10:15:15.353Z,48.18
2022-08-07T10:16:34.305Z,47.61
2022-08-07T10:18:03.438Z,46.22
2022-08-07T10:19:11.259Z,47.31
2022-08-07T10:20:39.703Z,47.48
2022-08-07T10:22:33.269Z,48.18
2022-08-07T10:24:10.023Z,46.40
2022-08-07T10:25:44.176Z,45.51
2022-08-07T10:26:53.340Z,46.81
2022-08-07T10:28:23.502Z,46.92
2022-08-07T10:29:39.363Z,45.93
2022-08-07T10:31:10.974Z,45.36
2022-08-07T10:32:52.252Z,44.37
2022-08-07T10:34:15.111Z,46.36
2022-08-07T10:35:55.262Z,47.34
2022-08-07T10:38:00.106Z,46.15
2022-08-07T10:39:05.450Z,45.27
2022-08-07T10:40:21.760Z,44.93
2022-08-07T10:41:46.357Z,44.63
2022-08-07T10:42:58.245Z,43.67
2022-08-07T10:44:39.168Z,44.33
2022-08-07T10:45:58.058Z,44.07
2022-08-07T10:47:11.957Z,44.59
2022-08-07T10:48:24.489Z,44.44
2022-08-07T10:49:51.240Z,44.22
2022-08-07T10:51:06.376Z,44.70
2022-08-07T10:52:31.713Z,44.52
2022-08-07T10:53:47.472Z,43.00
2022-08-07T10:55:27.001Z,43.69
2022-08-07T10:56:58.650Z,42.57
2022-08-07T10:58:15.812Z,41.51
2022-08-07T10:59:57.885Z,41.49
2022-08-07T11:01:35.507Z,41.41
2022-08-07T11:03:17.065Z,41.27
2022-08-07T11:04:32.043Z,40.74
2022-08-07T11:06:02.735Z,41.71
2022-08-07T11:07:56.175Z,41.67
2022-08-07T11:08:54.705Z,41.27
2022-08-07T11:10:08.831Z,40.45
2022-08-07T11:11:25.754Z,41.36
2022-08-07T11:12:43.168Z,40.65
2022-08-07T11:14:56.623Z,41.11
2022-08-07T11:15:54.391Z,41.35
2022-08-07T11:17:02.136Z,42.66
2022-08-07T11:18:25.079Z,42.85
2022-08-07T11:19:45.652Z,43.16
2022-08-07T11:21:20.237Z,43.50
2022-08-07T11:22:37.114Z,43.75
2022-08-07T11:24:20.018Z,43.73
2022-08-07T11:25:50.056Z,43.41
2022-08-07T11:27:20.643Z,43.75
2022-08-07T11:28:55.180Z,42.13
2022-08-07T11:30:18.636Z,44.59
2022-08-07T11:31:27.001Z,41.38
2022-08-07T11:32:40.610Z,41.30
2022-08-07T11:33:59.393Z,41.07
2022-08-07T11:35:16.679Z,39.91
2022-08-07T11:36:35.875Z,40.73
2022-08-07T11:37:58.146Z,41.07
2022-08-07T11:39:58.889Z,40.90
2022-08-07T11:41:18.270Z,39.87
2022-08-07T11:42:37.536Z,40.63
2022-08-07T11:44:12.614Z,41.19
2022-08-07T11:45:55.296Z,41.81
2022-08-07T11:47:04.453Z,42.77
2022-08-07T11:48:44.171Z,43.68
2022-08-07T11:50:30.380Z,41.48
2022-08-07T11:51:41.501Z,43.26
2022-08-07T11:53:08.919Z,44.56
2022-08-07T11:54:31.482Z,44.52
2022-08-07T11:56:15.765Z,44.05
2022-08-07T11:58:00.640Z,42.27
2022-08-07T12:00:07.623Z,41.83
2022-08-07T12:01:01.855Z,40.86
2022-08-07T12:02:52.573Z,41.32
2022-08-07T12:04:34.133Z,42.25
2022-08-07T12:05:49.489Z,43.21
2022-08-07T12:07:08.048Z,43.98
2022-08-07T12:08:25.968Z,44.91
2022-08-07T12:09:46.140Z,45.56
2022-08-07T12:11:20.402Z,46.07
2022-08-07T12:12:34.687Z,46.20
2022-08-07T12:13:53.760Z,46.16
2022-08-07T12:15:08.213Z,44.48
2022-08-07T12:16:31.641Z,42.99
2022-08-07T12:17:59.422Z,41.61
2022-08-07T12:19:22.017Z,41.09
2022-08-07T12:20:30.707Z,42.84
2022-08-07T12:22:39.575Z,39.47
2022-08-07T12:24:06.305Z,39.78
2022-08-07T12:26:21.875Z,37.46
2022-08-07T12:27:18.541Z,37.25
2022-08-07T12:29:00.735Z,35.84
2022-08-07T12:30:08.914Z,35.42
2022-08-07T12:31:52.492Z,33.88
2022-08-07T12:33:18.763Z,34.06
2022-08-07T12:34:31.783Z,34.93
2022-08-07T12:35:36.565Z,33.99
2022-08-07T12:36:42.294Z,34.35
2022-08-07T12:38:09.313Z,35.09
2022-08-07T12:39:43.981Z,34.39
2022-08-07T12:40:47.072Z,35.88
2022-08-07T12:41:53.574Z,35.16
2022-08-07T12:43:01.765Z,34.65
2022-08-07T12:44:12.906Z,34.31
2022-08-07T12:45:27.299Z,34.29
2022-08-07T12:46:48.817Z,34.78
2022-08-07T12:48:28.510Z,34.35
2022-08-07T12:50:33.971Z,34.96
2022-08-07T12:51:51.397Z,34.02
2022-08-07T12:53:22.406Z,35.68
2022-08-07T12:54:38.097Z,34.31
2022-08-07T12:56:03.010Z,34.76
2022-08-07T12:57:10.290Z,31.99
2022-08-07T12:58:16.388Z,32.40
2022-08-07T12:59:33.005Z,32.38
2022-08-07T13:00:50.139Z,33.52
2022-08-07T13:02:01.314Z,32.13
2022-08-07T13:03:56.279Z,31.43
2022-08-07T13:06:03.240Z,31.58
2022-08-07T13:08:14.096Z,31.46
2022-08-07T13:10:20.115Z,31.90
2022-08-07T13:10:59.960Z,29.60
2022-08-07T13:12:29.087Z,30.22
2022-08-07T13:13:53.790Z,30.58
2022-08-07T13:15:34.482Z,31.05
2022-08-07T13:17:09.412Z,30.87
2022-08-07T13:18:28.332Z,32.04
2022-08-07T13:19:35.145Z,32.43
2022-08-07T13:21:00.969Z,33.70
2022-08-07T13:22:19.791Z,33.29
2022-08-07T13:24:01.752Z,33.94
2022-08-07T13:25:15.222Z,34.84
2022-08-07T13:26:35.058Z,34.21
2022-08-07T13:28:11.458Z,34.08
2022-08-07T13:29:42.382Z,33.25
2022-08-07T13:31:02.147Z,33.41
2022-08-07T13:32:32.493Z,33.42
2022-08-07T13:34:30.139Z,33.13
2022-08-07T13:35:59.818Z,35.36
2022-08-07T13:37:21.711Z,33.49
2022-08-07T13:38:34.811Z,32.33
2022-08-07T13:40:33.353Z,30.46
2022-08-07T13:41:48.374Z,29.75
2022-08-07T13:42:54.224Z,29.64
2022-08-07T13:44:02.415Z,29.39
2022-08-07T13:46:06.434Z,30.52
2022-08-07T13:46:41.829Z,29.79
2022-08-07T13:48:08.106Z,29.82
2022-08-07T13:50:33.870Z,30.00
2022-08-07T13:50:45.267Z,29.85
2022-08-07T13:52:31.614Z,29.83
2022-08-07T13:53:59.620Z,28.94
2022-08-07T13:55:06.480Z,29.61
2022-08-07T13:56:09.869Z,29.63
2022-08-07T13:57:24.094Z,30.16
2022-08-07T13:59:12.142Z,29.05
2022-08-07T14:00:26.892Z,28.76
2022-08-07T14:01:33.512Z,28.41
2022-08-07T14:02:58.647Z,28.82
2022-08-07T14:04:16.758Z,29.55
2022-08-07T14:05:28.987Z,28.74
2022-08-07T14:06:43.545Z,28.86
2022-08-07T14:08:01.022Z,27.48
2022-08-07T14:09:09.823Z,26.54
2022-08-07T14:10:24.709Z,27.15
2022-08-07T14:11:53.717Z,27.56
2022-08-07T14:13:03.725Z,27.59
2022-08-07T14:14:15.550Z,28.63
2022-08-07T14:15:35.944Z,27.94
2022-08-07T14:16:49.816Z,28.54
2022-08-07T14:18:27.964Z,28.43
2022-08-07T14:20:43.428Z,28.92
2022-08-07T14:22:36.023Z,30.06
2022-08-07T14:22:41.098Z,29.01
2022-08-07T14:24:01.107Z,29.58
2022-08-07T14:25:17.121Z,30.65
2022-08-07T14:26:31.800Z,31.04
2022-08-07T14:28:12.251Z,32.26
2022-08-07T14:30:06.728Z,33.10
2022-08-07T14:30:32.970Z,32.96
2022-08-07T14:31:42.900Z,32.05
2022-08-07T14:32:58.051Z,30.86
2022-08-07T14:34:01.635Z,31.85
2022-08-07T14:35:43.038Z,31.72
2022-08-07T14:36:42.199Z,31.57
2022-08-07T14:38:03.243Z,29.94
2022-08-07T14:39:12.497Z,31.23
2022-08-07T14:40:35.354Z,28.91
2022-08-07T14:42:18.439Z,29.47
2022-08-07T14:43:58.663Z,28.08
2022-08-07T14:44:38.976Z,26.85
2022-08-07T14:45:49.493Z,27.27
2022-08-07T14:47:14.156Z,26.83
2022-08-07T14:48:20.732Z,26.90
2022-08-07T14:50:55.808Z,27.25
2022-08-07T14:54:03.735Z,26.93
2022-08-07T14:54:54.063Z,26.12
2022-08-07T14:56:00.931Z,26.44
2022-08-07T14:57:09.714Z,26.79
2022-08-07T14:58:24.154Z,25.96
2022-08-07T15:00:04.770Z,25.90
2022-08-07T15:00:52.636Z,25.43
2022-08-07T15:01:58.722Z,24.61
2022-08-07T15:03:16.394Z,25.52
2022-08-07T15:04:25.229Z,24.91
2022-08-07T15:05:30.356Z,26.01
2022-08-07T15:06:35.466Z,25.85
2022-08-07T15:07:47.642Z,25.23
2022-08-07T15:10:19.749Z,25.02
2022-08-07T15:11:53.380Z,24.94
2022-08-07T15:13:00.989Z,26.25
2022-08-07T15:15:52.422Z,25.85
2022-08-07T15:17:01.225Z,25.76
2022-08-07T15:18:14.128Z,24.99
2022-08-07T15:20:23.561Z,24.75
2022-08-07T15:21:03.737Z,24.36
2022-08-07T15:22:23.175Z,23.88
2022-08-07T15:25:14.601Z,24.23
2022-08-07T15:25:17.833Z,23.36
2022-08-07T15:26:31.884Z,23.18
2022-08-07T15:28:18.788Z,23.84
2022-08-07T15:30:04.435Z,23.00
2022-08-07T15:30:31.591Z,23.17
2022-08-07T15:32:02.104Z,23.54
2022-08-07T15:33:04.090Z,23.42
2022-08-07T15:34:14.928Z,24.08
2022-08-07T15:36:01.209Z,23.69
2022-08-07T15:37:04.580Z,24.36
2022-08-07T15:38:17.963Z,24.15
2022-08-07T15:39:56.307Z,25.13
2022-08-07T15:42:43.628Z,24.21
2022-08-07T15:44:04.793Z,24.72
2022-08-07T15:45:14.117Z,24.27
2022-08-07T15:46:32.490Z,24.73
2022-08-07T15:48:01.050Z,25.96
2022-08-07T15:49:14.291Z,25.97
2022-08-07T15:50:37.786Z,25.20
2022-08-07T15:53:11.171Z,26.21
2022-08-07T15:54:15.814Z,25.33
2022-08-07T15:55:20.809Z,24.91
2022-08-07T15:56:34.191Z,24.94
2022-08-07T15:57:47.802Z,24.88
2022-08-07T15:58:59.206Z,26.09
2022-08-07T16:00:06.685Z,25.16
2022-08-07T16:01:24.006Z,25.74
2022-08-07T16:02:46.622Z,26.55
2022-08-07T16:03:57.364Z,27.18
2022-08-07T16:05:04.251Z,26.49
2022-08-07T16:06:30.194Z,26.25
2022-08-07T16:08:31.590Z,27.31
2022-08-07T16:09:14.132Z,28.40
2022-08-07T16:10:29.786Z,28.40
2022-08-07T16:12:03.617Z,28.51
2022-08-07T16:13:57.556Z,28.80
2022-08-07T16:15:55.705Z,28.90
2022-08-07T16:16:56.773Z,29.71
2022-08-07T16:18:02.732Z,29.41
2022-08-07T16:19:20.675Z,30.16
2022-08-07T16:22:02.254Z,29.79
2022-08-07T16:22:34.080Z,30.77
2022-08-07T16:24:02.767Z,29.75
2022-08-07T16:25:54.559Z,30.06
2022-08-07T16:27:04.476Z,31.69
2022-08-07T16:30:08.332Z,32.04
2022-08-07T16:30:29.763Z,32.25
2022-08-07T16:31:50.690Z,32.57
2022-08-07T16:34:02.073Z,33.70
2022-08-07T16:34:50.920Z,34.22
2022-08-07T16:36:31.163Z,35.09
2022-08-07T16:38:03.571Z,35.68
2022-08-07T16:39:33.735Z,35.60
2022-08-07T16:41:13.342Z,36.33
2022-08-07T16:42:38.786Z,37.93
2022-08-07T16:44:05.707Z,38.01
2022-08-07T16:46:47.224Z,37.28
2022-08-07T16:47:38.656Z,38.10
2022-08-07T16:50:28.614Z,38.83
2022-08-07T16:50:52.660Z,37.89
2022-08-07T16:52:51.301Z,38.14